createdAt,value
2022-08-11T00:00:15.237Z,21.35
2022-08-11T00:01:57.416Z,21.31
2022-08-11T00:03:12.701Z,21.21
2022-08-11T00:04:22.033Z,21.09
2022-08-11T00:05:30.203Z,20.96
2022-08-11T00:06:38.773Z,20.99
2022-08-11T00:07:47.799Z,21.11
2022-08-11T00:08:56.927Z,20.97
2022-08-11T00:10:05.722Z,21.10
2022-08-11T00:11:14.552Z,20.80
2022-08-11T00:12:23.553Z,20.67
2022-08-11T00:13:47.160Z,20.86
2022-08-11T00:15:02.568Z,20.91
2022-08-11T00:16:20.560Z,21.04
2022-08-11T00:17:34.476Z,21.13
2022-08-11T00:18:47.637Z,21.33
2022-08-11T00:20:13.044Z,21.22
2022-08-11T00:21:54.660Z,21.34
2022-08-11T00:22:53.623Z,21.30
2022-08-11T00:24:05.854Z,21.40
2022-08-11T00:25:31.314Z,21.37
2022-08-11T00:26:38.880Z,21.19
2022-08-11T00:27:45.964Z,21.08
2022-08-11T00:28:53.443Z,21.04
2022-08-11T00:30:00.451Z,21.04
2022-08-11T00:31:10.540Z,21.04
2022-08-11T00:32:17.891Z,21.05
2022-08-11T00:33:44.196Z,20.85
2022-08-11T00:34:54.326Z,20.70
2022-08-11T00:36:25.597Z,20.64
2022-08-11T00:37:33.736Z,20.46
2022-08-11T00:38:45.348Z,20.72
2022-08-11T00:39:55.875Z,20.50
2022-08-11T00:41:28.459Z,20.41
2022-08-11T00:43:05.545Z,20.13
2022-08-11T00:44:34.041Z,20.15
2022-08-11T00:46:05.428Z,19.80
2022-08-11T00:47:50.456Z,19.39
2022-08-11T00:49:15.839Z,18.65
2022-08-11T00:50:47.308Z,18.48
2022-08-11T00:52:17.226Z,18.23
2022-08-11T00:53:49.743Z,18.11
2022-08-11T00:55:09.995Z,17.81
2022-08-11T00:56:45.095Z,17.48
2022-08-11T00:58:21.807Z,17.31
2022-08-11T00:59:59.180Z,17.19
2022-08-11T01:01:22.235Z,17.16
2022-08-11T01:02:47.476Z,17.15
2022-08-11T01:04:10.204Z,16.86
2022-08-11T01:05:48.096Z,16.81
2022-08-11T01:08:01.764Z,16.70
2022-08-11T01:09:22.055Z,16.63
2022-08-11T01:10:51.135Z,16.44
2022-08-11T01:12:16.480Z,16.34
2022-08-11T01:14:13.128Z,16.38
2022-08-11T01:15:29.681Z,16.15
2022-08-11T01:17:08.944Z,15.99
2022-08-11T01:18:56.290Z,15.72
2022-08-11T01:20:47.373Z,15.75
2022-08-11T01:22:11.263Z,15.93
2022-08-11T01:23:34.202Z,15.84
2022-08-11T01:24:53.852Z,15.58
2022-08-11T01:26:25.600Z,15.55
2022-08-11T01:27:47.505Z,15.44
2022-08-11T01:29:06.822Z,15.56
2022-08-11T01:30:50.871Z,15.69
2022-08-11T01:32:09.406Z,15.26
2022-08-11T01:33:34.799Z,15.38
2022-08-11T01:35:15.440Z,15.47
2022-08-11T01:36:39.175Z,15.45
2022-08-11T01:38:07.454Z,15.35
2022-08-11T01:39:43.424Z,14.98
2022-08-11T01:41:27.094Z,14.94
2022-08-11T01:43:18.585Z,15.24
2022-08-11T01:44:46.918Z,15.59
2022-08-11T01:46:08.465Z,15.54
2022-08-11T01:47:54.713Z,15.84
2022-08-11T01:50:05.870Z,16.10
2022-08-11T01:51:17.528Z,16.52
2022-08-11T01:52:33.488Z,16.62
2022-08-11T01:53:45.130Z,16.78
2022-08-11T01:55:29.207Z,16.85
2022-08-11T01:56:41.008Z,17.17
2022-08-11T01:57:58.757Z,17.24
2022-08-11T01:59:24.049Z,17.46
2022-08-11T02:00:32.037Z,17.61
2022-08-11T02:01:45.789Z,17.87
2022-08-11T02:02:55.267Z,17.90
2022-08-11T02:04:21.298Z,18.02
2022-08-11T02:05:49.685Z,17.95
2022-08-11T02:07:08.804Z,18.23
2022-08-11T02:08:32.900Z,18.75
2022-08-11T02:10:36.338Z,19.03
2022-08-11T02:11:46.197Z,19.13
2022-08-11T02:13:09.992Z,19.42
2022-08-11T02:14:38.972Z,19.77
2022-08-11T02:15:53.571Z,20.37
2022-08-11T02:17:01.011Z,20.54
2022-08-11T02:18:50.654Z,20.94
2022-08-11T02:20:28.053Z,20.90
2022-08-11T02:22:28.927Z,21.10
2022-08-11T02:24:06.524Z,21.26
2022-08-11T02:25:37.491Z,21.33
2022-08-11T02:27:24.071Z,21.58
2022-08-11T02:28:57.052Z,21.88
2022-08-11T02:30:09.479Z,22.22
2022-08-11T02:32:14.581Z,22.43
2022-08-11T02:33:27.705Z,23.02
2022-08-11T02:34:59.778Z,23.14
2022-08-11T02:36:13.254Z,23.24
2022-08-11T02:37:26.177Z,23.44
2022-08-11T02:39:03.331Z,23.79
2022-08-11T02:40:25.431Z,23.82
2022-08-11T02:42:03.721Z,24.04
2022-08-11T02:43:29.751Z,24.32
2022-08-11T02:44:56.824Z,24.27
2022-08-11T02:46:25.097Z,24.51
2022-08-11T02:48:08.896Z,24.61
2022-08-11T02:50:06.366Z,24.46
2022-08-11T02:51:39.210Z,24.91
2022-08-11T02:53:03.740Z,24.81
2022-08-11T02:54:31.967Z,24.91
2022-08-11T02:55:58.437Z,24.94
2022-08-11T02:57:30.129Z,25.18
2022-08-11T02:59:17.015Z,25.25
2022-08-11T03:00:24.371Z,25.24
2022-08-11T03:01:37.563Z,25.37
2022-08-11T03:02:48.176Z,25.63
2022-08-11T03:04:03.260Z,25.85
2022-08-11T03:05:18.941Z,25.70
2022-08-11T03:06:29.593Z,25.64
2022-08-11T03:07:42.740Z,25.85
2022-08-11T03:08:55.620Z,26.07
2022-08-11T03:10:24.688Z,26.09
2022-08-11T03:12:13.164Z,26.38
2022-08-11T03:13:49.417Z,26.35
2022-08-11T03:15:50.957Z,26.42
2022-08-11T03:17:13.095Z,26.69
2022-08-11T03:18:34.957Z,26.66
2022-08-11T03:20:06.359Z,26.93
2022-08-11T03:21:22.356Z,27.07
2022-08-11T03:22:54.529Z,27.23
2022-08-11T03:24:23.878Z,27.17
2022-08-11T03:25:51.371Z,27.28
2022-08-11T03:27:05.567Z,27.53
2022-08-11T03:28:31.838Z,27.48
2022-08-11T03:29:45.258Z,27.58
2022-08-11T03:30:59.174Z,27.69
2022-08-11T03:32:34.416Z,27.83
2022-08-11T03:34:07.193Z,27.92
2022-08-11T03:35:20.052Z,28.22
2022-08-11T03:37:15.753Z,28.27
2022-08-11T03:38:21.818Z,28.43
2022-08-11T03:39:56.368Z,28.79
2022-08-11T03:42:01.913Z,28.77
2022-08-11T03:43:23.253Z,28.79
2022-08-11T03:44:48.428Z,28.73
2022-08-11T03:46:08.678Z,28.84
2022-08-11T03:47:55.875Z,29.15
2022-08-11T03:49:24.627Z,29.43
2022-08-11T03:50:55.498Z,29.37
2022-08-11T03:52:08.027Z,29.57
2022-08-11T03:53:52.768Z,29.40
2022-08-11T03:55:07.112Z,29.53
2022-08-11T03:56:51.437Z,29.62
2022-08-11T03:58:07.276Z,29.73
2022-08-11T03:59:36.248Z,29.87
2022-08-11T04:00:59.787Z,30.12
2022-08-11T04:02:36.863Z,30.24
2022-08-11T04:04:22.526Z,30.16
2022-08-11T04:06:14.848Z,30.24
2022-08-11T04:07:47.168Z,30.34
2022-08-11T04:09:09.558Z,30.51
2022-08-11T04:11:03.287Z,30.65
2022-08-11T04:12:49.314Z,30.77
2022-08-11T04:14:26.518Z,30.96
2022-08-11T04:16:11.682Z,31.09
2022-08-11T04:17:32.809Z,31.10
2022-08-11T04:18:49.264Z,31.29
2022-08-11T04:20:32.321Z,31.59
2022-08-11T04:22:06.426Z,31.63
2022-08-11T04:24:35.586Z,31.33
2022-08-11T04:26:18.486Z,31.30
2022-08-11T04:27:54.395Z,31.46
2022-08-11T04:30:00.513Z,31.49
2022-08-11T04:31:44.080Z,31.37
2022-08-11T04:33:16.682Z,31.03
2022-08-11T04:34:31.491Z,30.95
2022-08-11T04:36:08.954Z,30.92
2022-08-11T04:37:42.545Z,30.74
2022-08-11T04:38:56.667Z,30.63
2022-08-11T04:40:41.002Z,30.65
2022-08-11T04:42:45.467Z,30.59
2022-08-11T04:44:29.449Z,30.69
2022-08-11T04:45:43.123Z,30.68
2022-08-11T04:47:13.816Z,30.75
2022-08-11T04:48:54.872Z,30.58
2022-08-11T04:51:03.969Z,30.87
2022-08-11T04:53:24.162Z,30.92
2022-08-11T04:55:11.518Z,31.03
2022-08-11T04:56:44.692Z,31.15
2022-08-11T04:58:19.731Z,31.15
2022-08-11T05:00:02.840Z,31.01
2022-08-11T05:01:43.788Z,31.05
2022-08-11T05:03:06.039Z,30.91
2022-08-11T05:04:34.601Z,30.98
2022-08-11T05:06:18.429Z,30.96
2022-08-11T05:07:55.691Z,30.85
2022-08-11T05:09:13.178Z,30.74
2022-08-11T05:10:50.834Z,30.78
2022-08-11T05:12:23.673Z,30.65
2022-08-11T05:13:58.140Z,30.58
2022-08-11T05:15:25.077Z,30.57
2022-08-11T05:17:13.174Z,30.56
2022-08-11T05:18:42.914Z,30.62
2022-08-11T05:20:09.522Z,30.81
2022-08-11T05:21:44.934Z,31.04
2022-08-11T05:23:12.781Z,31.06
2022-08-11T05:24:45.146Z,31.03
2022-08-11T05:26:45.271Z,31.11
2022-08-11T05:28:36.285Z,31.04
2022-08-11T05:30:28.635Z,31.06
2022-08-11T05:32:01.624Z,31.17
2022-08-11T05:33:31.836Z,31.18
2022-08-11T05:34:57.145Z,31.27
2022-08-11T05:36:16.297Z,31.30
2022-08-11T05:37:29.197Z,31.18
2022-08-11T05:38:56.655Z,31.26
2022-08-11T05:40:33.314Z,31.57
2022-08-11T05:41:59.726Z,31.87
2022-08-11T05:43:33.759Z,31.83
2022-08-11T05:45:00.378Z,31.87
2022-08-11T05:46:27.854Z,31.73
2022-08-11T05:47:54.881Z,31.87
2022-08-11T05:49:22.531Z,31.86
2022-08-11T05:50:49.042Z,31.88
2022-08-11T05:52:18.990Z,31.98
2022-08-11T05:53:46.379Z,32.15
2022-08-11T05:55:13.585Z,32.17
2022-08-11T05:56:22.073Z,32.16
2022-08-11T05:57:50.409Z,32.42
2022-08-11T05:58:59.825Z,32.57
2022-08-11T06:00:13.502Z,32.81
2022-08-11T06:01:50.413Z,32.97
2022-08-11T06:03:03.263Z,33.12
2022-08-11T06:04:17.837Z,33.07
2022-08-11T06:05:26.403Z,33.14
2022-08-11T06:06:35.229Z,33.16
2022-08-11T06:07:49.236Z,33.17
2022-08-11T06:08:59.196Z,33.23
2022-08-11T06:10:08.578Z,33.27
2022-08-11T06:11:17.979Z,33.11
2022-08-11T06:12:27.046Z,33.15
2022-08-11T06:13:35.284Z,32.96
2022-08-11T06:14:47.295Z,32.85
2022-08-11T06:15:54.867Z,32.89
2022-08-11T06:17:05.581Z,32.80
2022-08-11T06:18:14.863Z,32.58
2022-08-11T06:19:25.048Z,32.30
2022-08-11T06:20:39.036Z,32.44
2022-08-11T06:21:50.224Z,32.15
2022-08-11T06:23:05.876Z,31.95
2022-08-11T06:24:15.318Z,31.81
2022-08-11T06:25:24.146Z,32.05
2022-08-11T06:26:40.671Z,32.13
2022-08-11T06:28:00.937Z,32.22
2022-08-11T06:29:10.054Z,32.31
2022-08-11T06:30:20.796Z,32.44
2022-08-11T06:31:29.597Z,32.37
2022-08-11T06:32:38.016Z,32.30
2022-08-11T06:33:57.099Z,32.23
2022-08-11T06:35:14.950Z,32.12
2022-08-11T06:36:30.206Z,31.94
2022-08-11T06:38:09.916Z,31.87
2022-08-11T06:39:45.611Z,31.91
2022-08-11T06:41:21.996Z,31.65
2022-08-11T06:42:44.669Z,31.66
2022-08-11T06:44:13.585Z,31.63
2022-08-11T06:46:06.705Z,31.57
2022-08-11T06:47:14.916Z,31.44
2022-08-11T06:48:27.086Z,31.58
2022-08-11T06:50:00.629Z,31.58
2022-08-11T06:51:14.789Z,31.50
2022-08-11T06:52:35.733Z,31.56
2022-08-11T06:53:57.647Z,31.73
2022-08-11T06:55:57.094Z,31.84
2022-08-11T06:57:30.742Z,32.08
2022-08-11T06:59:01.245Z,32.19
2022-08-11T07:00:29.482Z,32.24
2022-08-11T07:01:50.207Z,32.55
2022-08-11T07:03:12.544Z,32.89
2022-08-11T07:04:29.255Z,33.01
2022-08-11T07:05:54.594Z,32.94
2022-08-11T07:07:45.507Z,33.23
2022-08-11T07:09:27.396Z,33.65
2022-08-11T07:10:59.836Z,33.72
2022-08-11T07:12:50.145Z,33.79
2022-08-11T07:14:16.978Z,33.83
2022-08-11T07:16:11.368Z,34.32
2022-08-11T07:17:27.266Z,34.60
2022-08-11T07:18:56.618Z,34.82
2022-08-11T07:20:24.193Z,34.72
2022-08-11T07:22:02.465Z,34.96
2022-08-11T07:23:30.552Z,35.00
2022-08-11T07:25:02.257Z,35.04
2022-08-11T07:26:30.047Z,35.26
2022-08-11T07:28:03.824Z,35.38
2022-08-11T07:29:13.546Z,35.53
2022-08-11T07:30:22.407Z,35.50
2022-08-11T07:31:37.748Z,35.50
2022-08-11T07:32:58.867Z,35.57
2022-08-11T07:34:20.450Z,35.73
2022-08-11T07:35:49.067Z,35.58
2022-08-11T07:37:01.453Z,35.78
2022-08-11T07:38:22.824Z,35.92
2022-08-11T07:39:36.262Z,36.15
2022-08-11T07:40:43.371Z,36.36
2022-08-11T07:41:51.017Z,36.64
2022-08-11T07:42:58.932Z,36.79
2022-08-11T07:44:13.169Z,36.76
2022-08-11T07:45:38.890Z,36.53
2022-08-11T07:47:07.771Z,36.44
2022-08-11T07:48:34.619Z,36.77
2022-08-11T07:50:00.320Z,36.52
2022-08-11T07:51:26.022Z,36.65
2022-08-11T07:52:35.110Z,36.60
2022-08-11T07:53:58.723Z,36.66
2022-08-11T07:55:18.008Z,36.59
2022-08-11T07:56:32.186Z,36.74
2022-08-11T07:58:16.928Z,36.69
2022-08-11T08:00:03.820Z,36.91
2022-08-11T08:01:44.272Z,36.88
2022-08-11T08:03:12.197Z,36.87
2022-08-11T08:04:38.658Z,36.99
2022-08-11T08:06:05.865Z,36.88
2022-08-11T08:07:42.690Z,36.82
2022-08-11T08:09:08.645Z,36.98
2022-08-11T08:10:38.301Z,37.41
2022-08-11T08:12:05.531Z,37.89
2022-08-11T08:13:32.753Z,38.25
2022-08-11T08:15:01.196Z,38.36
2022-08-11T08:16:28.800Z,38.35
2022-08-11T08:18:09.163Z,38.52
2022-08-11T08:19:24.082Z,38.63
2022-08-11T08:20:39.424Z,38.84
2022-08-11T08:21:46.388Z,38.83
2022-08-11T08:22:57.886Z,38.96
2022-08-11T08:24:05.498Z,38.94
2022-08-11T08:25:12.916Z,39.05
2022-08-11T08:26:39.309Z,38.87
2022-08-11T08:27:46.958Z,38.94
2022-08-11T08:28:54.455Z,38.70
2022-08-11T08:30:20.238Z,39.05
2022-08-11T08:31:27.466Z,39.00
2022-08-11T08:32:36.934Z,39.07
2022-08-11T08:33:44.075Z,39.26
2022-08-11T08:34:54.557Z,39.26
2022-08-11T08:36:16.695Z,39.27
2022-08-11T08:37:45.300Z,39.08
2022-08-11T08:38:58.206Z,38.86
2022-08-11T08:40:06.826Z,38.71
2022-08-11T08:41:16.573Z,38.59
2022-08-11T08:42:27.458Z,38.62
2022-08-11T08:43:48.985Z,38.53
2022-08-11T08:45:08.695Z,38.48
2022-08-11T08:46:15.841Z,38.32
2022-08-11T08:47:42.726Z,38.42
2022-08-11T08:48:50.370Z,38.42
2022-08-11T08:50:08.759Z,38.50
2022-08-11T08:52:01.382Z,38.50
2022-08-11T08:53:05.370Z,38.99
2022-08-11T08:54:17.115Z,39.56
2022-08-11T08:55:24.185Z,39.77
2022-08-11T08:56:31.507Z,39.75
2022-08-11T08:57:39.318Z,39.64
2022-08-11T08:58:48.167Z,39.81
2022-08-11T08:59:59.146Z,39.98
2022-08-11T09:01:06.819Z,39.92
2022-08-11T09:02:16.806Z,40.11
2022-08-11T09:03:40.960Z,40.14
2022-08-11T09:04:52.465Z,40.02
2022-08-11T09:06:00.157Z,40.02
2022-08-11T09:07:14.566Z,40.02
2022-08-11T09:08:23.016Z,40.05
2022-08-11T09:09:30.166Z,40.11
2022-08-11T09:10:38.162Z,40.12
2022-08-11T09:11:57.706Z,40.33
2022-08-11T09:13:04.883Z,40.24
2022-08-11T09:14:15.142Z,40.24
2022-08-11T09:15:23.546Z,40.72
2022-08-11T09:16:30.826Z,40.98
2022-08-11T09:17:42.557Z,40.87
2022-08-11T09:18:52.404Z,40.63
2022-08-11T09:20:10.357Z,40.57
2022-08-11T09:21:39.321Z,40.39
2022-08-11T09:24:07.115Z,40.11
2022-08-11T09:24:50.325Z,39.94
2022-08-11T09:26:20.535Z,40.22
2022-08-11T09:27:27.626Z,40.43
2022-08-11T09:28:35.757Z,40.48
2022-08-11T09:29:42.947Z,40.48
2022-08-11T09:30:58.188Z,40.66
2022-08-11T09:32:06.996Z,40.53
2022-08-11T09:33:15.606Z,40.53
2022-08-11T09:34:22.848Z,40.56
2022-08-11T09:35:30.404Z,40.63
2022-08-11T09:36:55.837Z,40.76
2022-08-11T09:38:21.642Z,41.02
2022-08-11T09:39:50.781Z,41.35
2022-08-11T09:40:58.394Z,41.86
2022-08-11T09:42:06.033Z,42.08
2022-08-11T09:43:38.164Z,42.07
2022-08-11T09:44:51.248Z,41.88
2022-08-11T09:45:59.515Z,41.68
2022-08-11T09:47:09.725Z,41.66
2022-08-11T09:48:19.024Z,41.62
2022-08-11T09:49:26.274Z,41.59
2022-08-11T09:50:35.051Z,41.58
2022-08-11T09:51:42.302Z,41.42
2022-08-11T09:53:35.972Z,41.34
2022-08-11T09:54:40.986Z,41.40
2022-08-11T09:55:48.162Z,41.36
2022-08-11T09:57:14.060Z,41.40
2022-08-11T09:58:42.897Z,41.22
2022-08-11T09:59:48.437Z,41.20
2022-08-11T10:00:55.615Z,41.18
2022-08-11T10:02:03.542Z,41.15
2022-08-11T10:03:24.898Z,41.10
2022-08-11T10:04:40.469Z,41.41
2022-08-11T10:06:11.507Z,41.53
2022-08-11T10:07:18.959Z,41.42
2022-08-11T10:08:30.098Z,41.39
2022-08-11T10:10:03.464Z,41.49
2022-08-11T10:11:13.071Z,41.72
2022-08-11T10:12:37.392Z,42.51
2022-08-11T10:14:33.153Z,42.50
2022-08-11T10:15:35.508Z,42.47
2022-08-11T10:16:43.169Z,42.27
2022-08-11T10:18:12.252Z,42.30
2022-08-11T10:19:21.296Z,42.30
2022-08-11T10:20:30.031Z,42.20
2022-08-11T10:21:45.602Z,42.55
2022-08-11T10:23:11.101Z,42.46
2022-08-11T10:24:36.628Z,42.84
2022-08-11T10:26:05.809Z,43.05
2022-08-11T10:27:13.187Z,42.95
2022-08-11T10:28:36.438Z,43.10
2022-08-11T10:30:06.309Z,43.68
2022-08-11T10:31:37.610Z,43.68
2022-08-11T10:33:37.939Z,43.42
2022-08-11T10:34:54.509Z,43.95
2022-08-11T10:36:16.605Z,44.74
2022-08-11T10:37:25.623Z,45.63
2022-08-11T10:38:53.603Z,45.61
2022-08-11T10:40:00.372Z,45.50
2022-08-11T10:41:36.923Z,45.53
2022-08-11T10:43:06.833Z,45.51
2022-08-11T10:44:13.973Z,45.37
2022-08-11T10:45:39.502Z,45.50
2022-08-11T10:47:05.026Z,45.74
2022-08-11T10:48:15.388Z,46.23
2022-08-11T10:49:23.332Z,46.26
2022-08-11T10:50:48.709Z,47.01
2022-08-11T10:52:17.872Z,47.09
2022-08-11T10:53:43.468Z,47.36
2022-08-11T10:55:08.605Z,47.61
2022-08-11T10:56:34.127Z,47.88
2022-08-11T10:58:04.974Z,47.45
2022-08-11T10:59:13.509Z,47.25
2022-08-11T11:00:26.338Z,47.18
2022-08-11T11:01:35.654Z,47.07
2022-08-11T11:03:16.747Z,47.01
2022-08-11T11:04:20.116Z,47.02
2022-08-11T11:05:30.956Z,47.04
2022-08-11T11:07:01.439Z,46.86
2022-08-11T11:08:36.298Z,47.08
2022-08-11T11:09:45.253Z,47.87
2022-08-11T11:10:52.655Z,48.15
2022-08-11T11:12:20.642Z,48.25
2022-08-11T11:13:55.069Z,48.02
2022-08-11T11:15:21.313Z,47.64
2022-08-11T11:16:46.941Z,47.37
2022-08-11T11:18:02.876Z,47.14
2022-08-11T11:19:11.261Z,47.12
2022-08-11T11:20:36.301Z,47.12
2022-08-11T11:21:46.182Z,47.23
2022-08-11T11:22:58.201Z,47.52
2022-08-11T11:24:13.481Z,47.49
2022-08-11T11:26:11.444Z,47.46
2022-08-11T11:27:28.597Z,47.24
2022-08-11T11:28:57.609Z,47.14
2022-08-11T11:30:08.698Z,47.27
2022-08-11T11:31:52.717Z,47.50
2022-08-11T11:33:10.757Z,47.18
2022-08-11T11:34:26.886Z,47.17
2022-08-11T11:35:34.070Z,46.58
2022-08-11T11:36:50.186Z,46.36
2022-08-11T11:38:04.387Z,46.14
2022-08-11T11:39:13.167Z,45.92
2022-08-11T11:40:31.526Z,45.91
2022-08-11T11:41:39.899Z,45.93
2022-08-11T11:42:47.375Z,45.91
2022-08-11T11:43:58.468Z,45.81
2022-08-11T11:45:10.438Z,45.65
2022-08-11T11:46:31.172Z,45.66
2022-08-11T11:47:46.548Z,45.90
2022-08-11T11:48:54.635Z,45.87
2022-08-11T11:50:01.758Z,45.90
2022-08-11T11:51:08.964Z,45.91
2022-08-11T11:52:20.338Z,45.85
2022-08-11T11:53:27.578Z,45.84
2022-08-11T11:54:35.181Z,45.85
2022-08-11T11:55:42.436Z,45.86
2022-08-11T11:56:49.757Z,45.97
2022-08-11T11:58:17.873Z,45.91
2022-08-11T11:59:45.962Z,46.32
2022-08-11T12:01:12.001Z,46.37
2022-08-11T12:02:19.057Z,46.34
2022-08-11T12:03:27.809Z,46.30
2022-08-11T12:04:35.308Z,46.47
2022-08-11T12:05:43.478Z,46.53
2022-08-11T12:06:50.582Z,46.24
2022-08-11T12:08:17.046Z,46.22
2022-08-11T12:09:24.718Z,45.64
2022-08-11T12:10:32.256Z,45.44
2022-08-11T12:12:17.526Z,45.27
2022-08-11T12:13:42.797Z,45.32
2022-08-11T12:14:49.813Z,45.43
2022-08-11T12:16:32.392Z,45.49
2022-08-11T12:17:24.575Z,45.96
2022-08-11T12:18:35.624Z,46.71
2022-08-11T12:19:48.369Z,47.49
2022-08-11T12:20:56.318Z,48.11
2022-08-11T12:22:26.773Z,47.92
2022-08-11T12:23:54.288Z,47.89
2022-08-11T12:25:20.226Z,48.02
2022-08-11T12:26:45.778Z,48.58
2022-08-11T12:28:13.557Z,48.70
2022-08-11T12:29:21.639Z,48.63
2022-08-11T12:30:29.041Z,48.80
2022-08-11T12:31:35.972Z,48.93
2022-08-11T12:32:43.154Z,48.97
2022-08-11T12:33:50.175Z,48.94
2022-08-11T12:34:58.510Z,49.26
2022-08-11T12:36:05.788Z,49.23
2022-08-11T12:37:14.507Z,49.29
2022-08-11T12:38:21.776Z,49.97
2022-08-11T12:40:17.188Z,50.10
2022-08-11T12:41:43.979Z,50.01
2022-08-11T12:43:21.729Z,50.24
2022-08-11T12:44:48.720Z,50.34
2022-08-11T12:45:59.443Z,50.25
2022-08-11T12:47:06.986Z,50.32
2022-08-11T12:49:00.654Z,50.66
2022-08-11T12:50:24.958Z,50.91
2022-08-11T12:52:13.815Z,51.27
2022-08-11T12:53:29.298Z,51.24
2022-08-11T12:54:42.453Z,50.72
2022-08-11T12:56:08.114Z,50.68
2022-08-11T12:57:37.157Z,50.35
2022-08-11T12:58:45.108Z,50.31
2022-08-11T13:00:12.128Z,50.29
2022-08-11T13:01:37.788Z,50.07
2022-08-11T13:03:03.608Z,49.99
2022-08-11T13:04:28.997Z,49.84
2022-08-11T13:05:40.205Z,49.85
2022-08-11T13:06:53.242Z,49.84
2022-08-11T13:08:00.659Z,49.91
2022-08-11T13:09:08.747Z,50.00
2022-08-11T13:10:38.461Z,49.94
2022-08-11T13:12:04.987Z,50.00
2022-08-11T13:13:53.698Z,50.09
2022-08-11T13:14:40.670Z,50.43
2022-08-11T13:15:51.375Z,50.40
2022-08-11T13:17:16.798Z,50.48
2022-08-11T13:18:25.568Z,50.23
2022-08-11T13:19:34.024Z,49.56
2022-08-11T13:20:42.484Z,49.34
2022-08-11T13:21:54.306Z,49.05
2022-08-11T13:23:02.684Z,48.94
2022-08-11T13:24:11.967Z,48.79
2022-08-11T13:25:23.174Z,48.50
2022-08-11T13:26:46.570Z,48.36
2022-08-11T13:28:01.383Z,48.37
2022-08-11T13:29:10.465Z,47.94
2022-08-11T13:30:52.499Z,47.63
2022-08-11T13:32:01.897Z,46.98
2022-08-11T13:33:10.526Z,46.52
2022-08-11T13:34:22.493Z,46.42
2022-08-11T13:35:31.814Z,46.33
2022-08-11T13:36:40.278Z,46.26
2022-08-11T13:38:18.927Z,46.19
2022-08-11T13:39:18.120Z,46.08
2022-08-11T13:40:52.616Z,45.92
2022-08-11T13:41:58.060Z,45.65
2022-08-11T13:43:06.803Z,45.41
2022-08-11T13:44:21.627Z,44.99
2022-08-11T13:45:32.705Z,44.44
2022-08-11T13:46:40.956Z,43.80
2022-08-11T13:47:54.197Z,43.29
2022-08-11T13:49:02.374Z,43.33
2022-08-11T13:50:10.525Z,43.59
2022-08-11T13:51:37.733Z,43.73
2022-08-11T13:52:48.946Z,43.73
2022-08-11T13:54:02.109Z,43.46
2022-08-11T13:55:36.549Z,43.50
2022-08-11T13:56:54.175Z,43.64
2022-08-11T13:58:09.022Z,43.85
2022-08-11T13:59:30.780Z,44.21
2022-08-11T14:00:39.930Z,44.68
2022-08-11T14:02:21.347Z,45.15
2022-08-11T14:04:28.838Z,45.43
2022-08-11T14:05:17.023Z,45.46
2022-08-11T14:06:25.112Z,45.04
2022-08-11T14:07:42.754Z,44.34
2022-08-11T14:08:50.929Z,43.60
2022-08-11T14:10:01.575Z,43.22
2022-08-11T14:12:22.518Z,42.67
2022-08-11T14:13:23.824Z,42.16
2022-08-11T14:14:35.504Z,41.48
2022-08-11T14:15:44.935Z,40.71
2022-08-11T14:16:53.885Z,40.23
2022-08-11T14:18:06.967Z,39.48
2022-08-11T14:19:15.811Z,39.04
2022-08-11T14:20:38.296Z,38.36
2022-08-11T14:22:07.883Z,37.68
2022-08-11T14:23:16.977Z,36.83
2022-08-11T14:24:25.291Z,36.40
2022-08-11T14:26:00.613Z,35.87
2022-08-11T14:27:02.746Z,35.58
2022-08-11T14:28:41.760Z,35.46
2022-08-11T14:29:48.571Z,35.03
2022-08-11T14:31:01.238Z,34.96
2022-08-11T14:32:15.456Z,35.06
2022-08-11T14:33:24.149Z,34.78
2022-08-11T14:34:46.373Z,33.44
2022-08-11T14:35:54.211Z,33.54
2022-08-11T14:37:17.021Z,33.65
2022-08-11T14:38:25.157Z,33.28
2022-08-11T14:39:37.891Z,33.13
2022-08-11T14:41:04.680Z,32.49
2022-08-11T14:42:30.694Z,32.25
2022-08-11T14:44:12.640Z,32.04
2022-08-11T14:45:58.425Z,31.48
2022-08-11T14:47:23.782Z,31.38
2022-08-11T14:48:33.423Z,31.06
2022-08-11T14:49:58.059Z,30.61
2022-08-11T14:51:10.374Z,30.41
2022-08-11T14:52:19.504Z,29.94
2022-08-11T14:53:28.301Z,29.71
2022-08-11T14:54:54.625Z,29.87
2022-08-11T14:56:20.904Z,29.60
2022-08-11T14:57:55.370Z,29.93
2022-08-11T14:58:58.307Z,29.70
2022-08-11T15:00:08.847Z,29.27
2022-08-11T15:01:37.203Z,29.10
2022-08-11T15:03:03.557Z,28.73
2022-08-11T15:04:36.271Z,28.13
2022-08-11T15:05:58.517Z,28.23
2022-08-11T15:07:17.133Z,28.21
2022-08-11T15:08:49.030Z,27.44
2022-08-11T15:10:12.181Z,27.19
2022-08-11T15:11:44.971Z,26.71
2022-08-11T15:12:52.747Z,26.58
2022-08-11T15:14:02.371Z,25.97
2022-08-11T15:15:29.935Z,25.64
2022-08-11T15:17:08.696Z,25.31
2022-08-11T15:18:27.058Z,24.41
2022-08-11T15:19:41.012Z,24.69
2022-08-11T15:21:07.718Z,24.48
2022-08-11T15:22:34.150Z,24.37
2022-08-11T15:24:01.183Z,23.61
2022-08-11T15:25:10.891Z,23.78
2022-08-11T15:27:04.894Z,23.60
2022-08-11T15:28:31.859Z,23.17
2022-08-11T15:29:57.428Z,22.56
2022-08-11T15:31:23.188Z,22.46
2022-08-11T15:32:48.647Z,21.49
2022-08-11T15:34:18.085Z,21.59
2022-08-11T15:35:44.043Z,21.74
2022-08-11T15:37:09.941Z,21.95
2022-08-11T15:38:17.412Z,21.77
2022-08-11T15:39:59.926Z,21.38
2022-08-11T15:41:25.359Z,21.46
2022-08-11T15:42:50.658Z,21.20
2022-08-11T15:44:18.316Z,21.13
2022-08-11T15:45:43.930Z,21.13
2022-08-11T15:46:55.433Z,21.32
2022-08-11T15:48:08.432Z,21.04
2022-08-11T15:49:24.746Z,21.33
2022-08-11T15:50:56.615Z,21.38
2022-08-11T15:52:07.164Z,21.34
2022-08-11T15:53:37.617Z,20.69
2022-08-11T15:54:44.694Z,20.52
2022-08-11T15:55:54.242Z,20.33
2022-08-11T15:57:03.029Z,19.98
2022-08-11T15:58:29.875Z,19.66
2022-08-11T15:59:57.297Z,19.68
2022-08-11T16:01:23.520Z,19.46
2022-08-11T16:02:49.264Z,19.14
2022-08-11T16:04:18.145Z,19.32
2022-08-11T16:05:46.472Z,19.26
2022-08-11T16:06:54.346Z,18.99
2022-08-11T16:08:02.917Z,18.84
2022-08-11T16:09:18.454Z,18.59
2022-08-11T16:10:27.906Z,18.35
2022-08-11T16:11:36.376Z,18.49
2022-08-11T16:13:18.187Z,18.59
2022-08-11T16:14:43.893Z,18.28
2022-08-11T16:16:16.113Z,18.50
2022-08-11T16:17:23.636Z,18.62
2022-08-11T16:18:45.100Z,18.81
2022-08-11T16:19:53.405Z,18.77
2022-08-11T16:21:02.385Z,18.39
2022-08-11T16:22:11.530Z,18.06
2022-08-11T16:23:18.665Z,18.16
2022-08-11T16:27:05.337Z,18.13
2022-08-11T16:27:05.338Z,18.30
2022-08-11T16:27:24.495Z,18.43
2022-08-11T16:28:32.186Z,18.33
2022-08-11T16:29:39.585Z,17.92
2022-08-11T16:30:47.656Z,17.71
2022-08-11T16:32:13.655Z,17.60
2022-08-11T16:33:48.485Z,17.70
2022-08-11T16:35:11.408Z,17.82
2022-08-11T16:36:37.025Z,17.68
2022-08-11T16:38:02.919Z,17.53
2022-08-11T16:39:10.318Z,17.23
2022-08-11T16:40:17.545Z,16.75
2022-08-11T16:41:44.406Z,16.67
2022-08-11T16:43:11.680Z,16.49
2022-08-11T16:44:38.364Z,16.21
2022-08-11T16:46:03.994Z,15.95
2022-08-11T16:47:18.265Z,15.88
2022-08-11T16:48:45.641Z,15.45
2022-08-11T16:49:54.237Z,14.18
2022-08-11T16:51:02.217Z,14.42
2022-08-11T16:52:13.774Z,14.95
2022-08-11T16:53:20.802Z,15.46
2022-08-11T16:54:52.749Z,15.53
2022-08-11T16:56:04.920Z,15.41
2022-08-11T16:57:41.395Z,15.04
2022-08-11T16:59:17.454Z,14.51
2022-08-11T17:00:25.243Z,14.65
2022-08-11T17:01:32.627Z,14.63
2022-08-11T17:03:00.525Z,14.69
2022-08-11T17:05:07.332Z,15.00
2022-08-11T17:06:32.796Z,15.21
2022-08-11T17:08:01.232Z,15.23
2022-08-11T17:09:27.675Z,15.02
2022-08-11T17:11:01.716Z,14.98
2022-08-11T17:12:30.088Z,15.24
2022-08-11T17:13:44.826Z,15.38
2022-08-11T17:14:53.809Z,15.44
2022-08-11T17:16:09.625Z,15.56
2022-08-11T17:17:28.348Z,15.82
2022-08-11T17:19:13.785Z,16.45
2022-08-11T17:20:42.362Z,16.99
2022-08-11T17:22:09.850Z,17.03
2022-08-11T17:23:35.178Z,17.18
2022-08-11T17:24:46.352Z,17.99
2022-08-11T17:26:03.776Z,18.38
2022-08-11T17:27:12.633Z,18.81
2022-08-11T17:28:19.970Z,18.79
2022-08-11T17:29:53.675Z,19.07
2022-08-11T17:31:22.803Z,19.28
2022-08-11T17:33:03.562Z,19.26
2022-08-11T17:34:29.310Z,19.35
2022-08-11T17:35:42.501Z,19.26
2022-08-11T17:36:53.536Z,18.94
2022-08-11T17:38:05.272Z,18.83
2022-08-11T17:39:14.177Z,18.92
2022-08-11T17:40:27.484Z,18.72